sensor_id;sensor_type;location;lat;lon;timestamp;pressure;altitude;pressure_sealevel;temperature;humidity
57232;BME280;43488;46.934;8.276;2023-03-18T00:00:44;96222.06;;;8.42;79.91
57232;BME280;43488;46.934;8.276;2023-03-18T00:03:13;96226.28;;;8.37;80.40
57232;BME280;43488;46.934;8.276;2023-03-18T00:05:40;96235.31;;;8.27;80.92
57232;BME280;43488;46.934;8.276;2023-03-18T00:08:08;96227.03;;;8.24;81.51
57232;BME280;43488;46.934;8.276;2023-03-18T00:10:35;96222.81;;;8.23;81.42
57232;BME280;43488;46.934;8.276;2023-03-18T00:13:03;96226.84;;;8.25;80.35
57232;BME280;43488;46.934;8.276;2023-03-18T00:15:31;96231.88;;;8.27;80.33
57232;BME280;43488;46.934;8.276;2023-03-18T00:17:58;96225.63;;;8.28;80.06
57232;BME280;43488;46.934;8.276;2023-03-18T00:20:26;96231.88;;;8.27;80.23
57232;BME280;43488;46.934;8.276;2023-03-18T00:23:06;96235.09;;;8.16;80.49
57232;BME280;43488;46.934;8.276;2023-03-18T00:25:36;96226.63;;;8.14;80.33
57232;BME280;43488;46.934;8.276;2023-03-18T00:28:05;96232.25;;;8.17;80.34
57232;BME280;43488;46.934;8.276;2023-03-18T00:30:36;96236.91;;;8.22;80.46
57232;BME280;43488;46.934;8.276;2023-03-18T00:33:05;96234.09;;;8.23;80.35
57232;BME280;43488;46.934;8.276;2023-03-18T00:35:33;96245.78;;;8.21;81.29
57232;BME280;43488;46.934;8.276;2023-03-18T00:38:00;96240.13;;;8.17;81.59
57232;BME280;43488;46.934;8.276;2023-03-18T00:40:30;96243.75;;;8.16;81.62
57232;BME280;43488;46.934;8.276;2023-03-18T00:43:10;96242.75;;;8.17;81.30
57232;BME280;43488;46.934;8.276;2023-03-18T00:45:39;96240.50;;;8.08;81.22
57232;BME280;43488;46.934;8.276;2023-03-18T00:48:07;96240.06;;;8.04;81.22
57232;BME280;43488;46.934;8.276;2023-03-18T00:50:35;96236.28;;;8.07;81.50
57232;BME280;43488;46.934;8.276;2023-03-18T00:53:03;96243.31;;;7.99;82.02
57232;BME280;43488;46.934;8.276;2023-03-18T00:55:30;96232.41;;;7.96;82.45
57232;BME280;43488;46.934;8.276;2023-03-18T00:57:58;96228.34;;;7.93;82.69
57232;BME280;43488;46.934;8.276;2023-03-18T01:00:25;96230.16;;;7.93;82.50
57232;BME280;43488;46.934;8.276;2023-03-18T01:02:54;96229.97;;;7.88;82.70
57232;BME280;43488;46.934;8.276;2023-03-18T01:05:22;96230.34;;;7.85;83.06
57232;BME280;43488;46.934;8.276;2023-03-18T01:07:51;96230.53;;;7.83;82.82
57232;BME280;43488;46.934;8.276;2023-03-18T01:10:20;96228.72;;;7.84;82.48
57232;BME280;43488;46.934;8.276;2023-03-18T01:12:47;96225.47;;;7.75;83.20
57232;BME280;43488;46.934;8.276;2023-03-18T01:15:18;96213.81;;;7.78;82.99
57232;BME280;43488;46.934;8.276;2023-03-18T01:17:46;96228.91;;;7.76;83.16
57232;BME280;43488;46.934;8.276;2023-03-18T01:20:17;96227.91;;;7.77;83.33
57232;BME280;43488;46.934;8.276;2023-03-18T01:22:45;96224.09;;;7.79;83.39
57232;BME280;43488;46.934;8.276;2023-03-18T01:25:15;96221.88;;;7.83;82.92
57232;BME280;43488;46.934;8.276;2023-03-18T01:27:43;96221.47;;;7.79;82.74
57232;BME280;43488;46.934;8.276;2023-03-18T01:30:11;96221.88;;;7.83;82.24
57232;BME280;43488;46.934;8.276;2023-03-18T01:32:40;96212.59;;;7.80;82.54
57232;BME280;43488;46.934;8.276;2023-03-18T01:35:08;96219.69;;;7.86;82.82
57232;BME280;43488;46.934;8.276;2023-03-18T01:37:36;96212.81;;;7.85;82.65
57232;BME280;43488;46.934;8.276;2023-03-18T01:40:05;96223.09;;;7.80;83.35
57232;BME280;43488;46.934;8.276;2023-03-18T01:42:33;96225.47;;;7.75;83.40
57232;BME280;43488;46.934;8.276;2023-03-18T01:45:24;96225.06;;;7.72;83.43
57232;BME280;43488;46.934;8.276;2023-03-18T01:47:52;96222.84;;;7.75;83.27
57232;BME280;43488;46.934;8.276;2023-03-18T01:50:23;96225.47;;;7.68;83.07
57232;BME280;43488;46.934;8.276;2023-03-18T01:52:58;96216.38;;;7.64;83.43
57232;BME280;43488;46.934;8.276;2023-03-18T01:55:30;96213.19;;;7.69;83.14
57232;BME280;43488;46.934;8.276;2023-03-18T01:58:00;96215.78;;;7.69;83.19
57232;BME280;43488;46.934;8.276;2023-03-18T02:00:29;96206.50;;;7.66;82.97
57232;BME280;43488;46.934;8.276;2023-03-18T02:02:56;96214.16;;;7.68;82.86
57232;BME280;43488;46.934;8.276;2023-03-18T02:05:26;96215.34;;;7.65;82.82
57232;BME280;43488;46.934;8.276;2023-03-18T02:07:54;96205.28;;;7.62;82.77
57232;BME280;43488;46.934;8.276;2023-03-18T02:10:29;96205.28;;;7.62;82.15
57232;BME280;43488;46.934;8.276;2023-03-18T02:13:06;96197.19;;;7.57;83.09
57232;BME280;43488;46.934;8.276;2023-03-18T02:15:44;96196.41;;;7.63;83.09
57232;BME280;43488;46.934;8.276;2023-03-18T02:18:19;96194.56;;;7.57;84.17
57232;BME280;43488;46.934;8.276;2023-03-18T02:29:35;96200.44;;;7.59;83.28
57232;BME280;43488;46.934;8.276;2023-03-18T02:32:05;96189.13;;;7.59;83.26
57232;BME280;43488;46.934;8.276;2023-03-18T02:34:34;96193.56;;;7.52;83.54
57232;BME280;43488;46.934;8.276;2023-03-18T02:37:03;96189.91;;;7.46;84.24
57232;BME280;43488;46.934;8.276;2023-03-18T02:39:34;96192.31;;;7.48;84.06
57232;BME280;43488;46.934;8.276;2023-03-18T02:42:03;96179.81;;;7.43;84.47
57232;BME280;43488;46.934;8.276;2023-03-18T02:44:39;96192.72;;;7.45;84.42
57232;BME280;43488;46.934;8.276;2023-03-18T02:47:13;96191.72;;;7.46;84.78
57232;BME280;43488;46.934;8.276;2023-03-18T02:49:44;96191.47;;;7.40;84.90
57232;BME280;43488;46.934;8.276;2023-03-18T02:52:12;96200.97;;;7.41;84.94
57232;BME280;43488;46.934;8.276;2023-03-18T02:54:39;96196.53;;;7.42;85.00
57232;BME280;43488;46.934;8.276;2023-03-18T02:57:07;96194.50;;;7.37;85.67
57232;BME280;43488;46.934;8.276;2023-03-18T02:59:34;96195.28;;;7.38;85.42
57232;BME280;43488;46.934;8.276;2023-03-18T03:02:02;96199.16;;;7.42;85.06
57232;BME280;43488;46.934;8.276;2023-03-18T03:04:29;96191.47;;;7.34;84.63
57232;BME280;43488;46.934;8.276;2023-03-18T03:06:58;96187.59;;;7.30;84.58
57232;BME280;43488;46.934;8.276;2023-03-18T03:09:27;96188.25;;;7.32;84.54
57232;BME280;43488;46.934;8.276;2023-03-18T03:11:54;96191.81;;;7.31;84.12
57232;BME280;43488;46.934;8.276;2023-03-18T03:14:22;96199.47;;;7.26;83.88
57232;BME280;43488;46.934;8.276;2023-03-18T03:16:50;96197.06;;;7.24;84.06
57232;BME280;43488;46.934;8.276;2023-03-18T03:19:17;96200.69;;;7.23;84.04
57232;BME280;43488;46.934;8.276;2023-03-18T03:21:45;96208.50;;;7.17;84.31
57232;BME280;43488;46.934;8.276;2023-03-18T03:24:12;96216.75;;;7.13;84.33
57232;BME280;43488;46.934;8.276;2023-03-18T03:26:39;96209.19;;;6.97;84.55
57232;BME280;43488;46.934;8.276;2023-03-18T03:29:06;96216.09;;;7.05;84.81
57232;BME280;43488;46.934;8.276;2023-03-18T03:31:34;96213.88;;;7.08;84.77
57232;BME280;43488;46.934;8.276;2023-03-18T03:34:03;96217.88;;;7.04;84.82
57232;BME280;43488;46.934;8.276;2023-03-18T03:36:30;96231.16;;;7.03;85.75
57232;BME280;43488;46.934;8.276;2023-03-18T03:38:58;96221.06;;;7.00;87.36
57232;BME280;43488;46.934;8.276;2023-03-18T03:41:26;96216.25;;;7.03;87.74
57232;BME280;43488;46.934;8.276;2023-03-18T03:43:54;96219.91;;;7.09;88.06
57232;BME280;43488;46.934;8.276;2023-03-18T03:46:21;96220.72;;;7.09;86.91
57232;BME280;43488;46.934;8.276;2023-03-18T03:48:49;96223.28;;;7.03;86.49
57232;BME280;43488;46.934;8.276;2023-03-18T03:51:18;96222.81;;;6.93;87.03
57232;BME280;43488;46.934;8.276;2023-03-18T03:53:45;96227.44;;;6.91;86.72
57232;BME280;43488;46.934;8.276;2023-03-18T03:56:12;96220.00;;;6.88;86.58
57232;BME280;43488;46.934;8.276;2023-03-18T03:58:40;96226.84;;;6.89;88.01
57232;BME280;43488;46.934;8.276;2023-03-18T04:01:07;96230.47;;;6.88;88.64
57232;BME280;43488;46.934;8.276;2023-03-18T04:03:35;96233.44;;;6.84;89.75
57232;BME280;43488;46.934;8.276;2023-03-18T04:06:02;96235.69;;;6.88;90.19
57232;BME280;43488;46.934;8.276;2023-03-18T04:08:31;96237.84;;;6.84;89.72
57232;BME280;43488;46.934;8.276;2023-03-18T04:10:59;96239.06;;;6.81;90.25
57232;BME280;43488;46.934;8.276;2023-03-18T04:13:27;96237.84;;;6.77;90.38
57232;BME280;43488;46.934;8.276;2023-03-18T04:15:54;96241.38;;;6.70;91.19
57232;BME280;43488;46.934;8.276;2023-03-18T04:18:21;96257.44;;;6.67;92.46
57232;BME280;43488;46.934;8.276;2023-03-18T04:20:49;96247.78;;;6.67;92.65
57232;BME280;43488;46.934;8.276;2023-03-18T04:23:16;96250.41;;;6.67;92.65
57232;BME280;43488;46.934;8.276;2023-03-18T04:25:44;96246.16;;;6.66;92.09
57232;BME280;43488;46.934;8.276;2023-03-18T04:28:12;96253.84;;;6.68;91.34
57232;BME280;43488;46.934;8.276;2023-03-18T04:30:40;96250.72;;;6.57;90.61
57232;BME280;43488;46.934;8.276;2023-03-18T04:33:07;96250.91;;;6.56;90.29
57232;BME280;43488;46.934;8.276;2023-03-18T04:35:36;96254.66;;;6.47;91.23
57232;BME280;43488;46.934;8.276;2023-03-18T04:38:03;96253.22;;;6.44;92.78
57232;BME280;43488;46.934;8.276;2023-03-18T04:40:32;96255.66;;;6.46;93.18
57232;BME280;43488;46.934;8.276;2023-03-18T04:43:00;96262.88;;;6.44;93.01
57232;BME280;43488;46.934;8.276;2023-03-18T04:45:29;96261.63;;;6.40;93.17
57232;BME280;43488;46.934;8.276;2023-03-18T04:47:57;96253.16;;;6.38;92.53
57232;BME280;43488;46.934;8.276;2023-03-18T04:50:25;96247.59;;;6.41;92.35
57232;BME280;43488;46.934;8.276;2023-03-18T04:52:54;96250.56;;;6.38;92.20
57232;BME280;43488;46.934;8.276;2023-03-18T04:55:22;96246.69;;;6.34;91.68
57232;BME280;43488;46.934;8.276;2023-03-18T04:57:50;96242.66;;;6.31;91.59
57232;BME280;43488;46.934;8.276;2023-03-18T05:00:19;96252.84;;;6.26;90.80
57232;BME280;43488;46.934;8.276;2023-03-18T05:02:49;96247.19;;;6.22;90.21
57232;BME280;43488;46.934;8.276;2023-03-18T05:05:17;96245.31;;;6.16;90.27
57232;BME280;43488;46.934;8.276;2023-03-18T05:07:45;96249.75;;;6.16;90.56
57232;BME280;43488;46.934;8.276;2023-03-18T05:10:13;96247.94;;;6.16;90.71
57232;BME280;43488;46.934;8.276;2023-03-18T05:12:40;96242.63;;;6.10;90.39
57232;BME280;43488;46.934;8.276;2023-03-18T05:15:09;96244.44;;;6.09;90.44
57232;BME280;43488;46.934;8.276;2023-03-18T05:17:37;96231.94;;;6.05;90.06
57232;BME280;43488;46.934;8.276;2023-03-18T05:20:10;96240.03;;;6.10;90.41
57232;BME280;43488;46.934;8.276;2023-03-18T05:22:37;96241.59;;;6.04;90.44
57232;BME280;43488;46.934;8.276;2023-03-18T05:25:06;96240.31;;;6.00;91.27
57232;BME280;43488;46.934;8.276;2023-03-18T05:27:34;96235.28;;;5.98;91.62
57232;BME280;43488;46.934;8.276;2023-03-18T05:30:03;96231.50;;;6.01;91.96
57232;BME280;43488;46.934;8.276;2023-03-18T05:32:31;96228.25;;;5.99;91.18
57232;BME280;43488;46.934;8.276;2023-03-18T05:34:59;96234.84;;;5.95;91.60
57232;BME280;43488;46.934;8.276;2023-03-18T05:37:26;96231.25;;;5.96;91.70
57232;BME280;43488;46.934;8.276;2023-03-18T05:39:53;96232.59;;;5.92;91.36
57232;BME280;43488;46.934;8.276;2023-03-18T05:42:22;96235.03;;;5.93;91.96
57232;BME280;43488;46.934;8.276;2023-03-18T05:44:50;96235.22;;;5.92;92.02
57232;BME280;43488;46.934;8.276;2023-03-18T05:47:17;96228.00;;;5.94;92.55
57232;BME280;43488;46.934;8.276;2023-03-18T05:49:45;96225.03;;;5.97;92.56
57232;BME280;43488;46.934;8.276;2023-03-18T05:52:15;96218.81;;;5.98;93.15
57232;BME280;43488;46.934;8.276;2023-03-18T05:54:43;96227.63;;;5.97;92.93
57232;BME280;43488;46.934;8.276;2023-03-18T05:57:11;96227.25;;;6.00;92.84
57232;BME280;43488;46.934;8.276;2023-03-18T05:59:39;96229.25;;;5.98;94.23
57232;BME280;43488;46.934;8.276;2023-03-18T06:02:06;96227.25;;;6.00;94.61
57232;BME280;43488;46.934;8.276;2023-03-18T06:04:35;96222.66;;;6.02;93.63
57232;BME280;43488;46.934;8.276;2023-03-18T06:07:03;96228.38;;;5.91;92.30
57232;BME280;43488;46.934;8.276;2023-03-18T06:09:32;96230.44;;;5.81;91.80
57232;BME280;43488;46.934;8.276;2023-03-18T06:12:00;96223.69;;;5.71;92.25
57232;BME280;43488;46.934;8.276;2023-03-18T06:14:28;96231.25;;;5.66;92.43
57232;BME280;43488;46.934;8.276;2023-03-18T06:16:56;96227.78;;;5.59;93.04
57232;BME280;43488;46.934;8.276;2023-03-18T06:19:23;96230.59;;;5.58;92.68
57232;BME280;43488;46.934;8.276;2023-03-18T06:21:52;96227.59;;;5.61;92.28
57232;BME280;43488;46.934;8.276;2023-03-18T06:24:19;96226.31;;;5.57;91.79
57232;BME280;43488;46.934;8.276;2023-03-18T06:26:47;96224.53;;;5.57;91.60
57232;BME280;43488;46.934;8.276;2023-03-18T06:29:14;96229.66;;;5.65;91.94
57232;BME280;43488;46.934;8.276;2023-03-18T06:31:41;96233.06;;;5.66;91.74
57232;BME280;43488;46.934;8.276;2023-03-18T06:34:09;96237.59;;;5.57;93.29
57232;BME280;43488;46.934;8.276;2023-03-18T06:36:36;96236.88;;;5.63;94.81
57232;BME280;43488;46.934;8.276;2023-03-18T06:39:04;96236.34;;;5.68;94.21
57232;BME280;43488;46.934;8.276;2023-03-18T06:41:31;96235.75;;;5.72;93.61
57232;BME280;43488;46.934;8.276;2023-03-18T06:43:59;96238.00;;;5.76;93.46
57232;BME280;43488;46.934;8.276;2023-03-18T06:46:26;96236.38;;;5.75;93.43
57232;BME280;43488;46.934;8.276;2023-03-18T06:48:55;96236.66;;;5.80;93.42
57232;BME280;43488;46.934;8.276;2023-03-18T06:51:22;96229.25;;;5.83;92.62
57232;BME280;43488;46.934;8.276;2023-03-18T06:53:50;96232.69;;;5.84;92.74
57232;BME280;43488;46.934;8.276;2023-03-18T06:56:17;96231.44;;;5.94;92.10
57232;BME280;43488;46.934;8.276;2023-03-18T06:58:45;96233.22;;;5.94;91.73
57232;BME280;43488;46.934;8.276;2023-03-18T07:01:12;96236.72;;;6.01;91.71
57232;BME280;43488;46.934;8.276;2023-03-18T07:03:40;96238.16;;;6.04;92.42
57232;BME280;43488;46.934;8.276;2023-03-18T07:06:07;96225.75;;;6.12;93.07
57232;BME280;43488;46.934;8.276;2023-03-18T07:08:37;96239.97;;;6.24;92.43
57232;BME280;43488;46.934;8.276;2023-03-18T07:11:05;96233.44;;;6.35;92.07
57232;BME280;43488;46.934;8.276;2023-03-18T07:13:33;96238.97;;;6.47;91.77
57232;BME280;43488;46.934;8.276;2023-03-18T07:16:01;96235.41;;;6.54;91.24
57232;BME280;43488;46.934;8.276;2023-03-18T07:18:29;96238.72;;;6.63;91.16
57232;BME280;43488;46.934;8.276;2023-03-18T07:20:56;96237.03;;;6.77;90.02
57232;BME280;43488;46.934;8.276;2023-03-18T07:23:24;96235.31;;;6.91;89.63
57232;BME280;43488;46.934;8.276;2023-03-18T07:25:52;96230.94;;;6.98;89.75
57232;BME280;43488;46.934;8.276;2023-03-18T07:28:19;96243.09;;;7.12;89.46
57232;BME280;43488;46.934;8.276;2023-03-18T07:30:47;96238.94;;;7.24;90.05
57232;BME280;43488;46.934;8.276;2023-03-18T07:33:14;96241.22;;;7.34;89.95
57232;BME280;43488;46.934;8.276;2023-03-18T07:35:42;96230.38;;;7.44;88.85
57232;BME280;43488;46.934;8.276;2023-03-18T07:38:10;96229.81;;;7.55;88.25
57232;BME280;43488;46.934;8.276;2023-03-18T07:40:37;96232.50;;;7.68;88.00
57232;BME280;43488;46.934;8.276;2023-03-18T07:43:05;96239.19;;;7.70;89.49
57232;BME280;43488;46.934;8.276;2023-03-18T07:45:33;96249.84;;;7.69;88.58
57232;BME280;43488;46.934;8.276;2023-03-18T07:48:00;96244.00;;;7.74;89.09
57232;BME280;43488;46.934;8.276;2023-03-18T07:50:28;96230.53;;;7.83;89.91
57232;BME280;43488;46.934;8.276;2023-03-18T07:52:56;96243.06;;;7.94;90.04
57232;BME280;43488;46.934;8.276;2023-03-18T07:55:23;96242.69;;;7.97;91.79
57232;BME280;43488;46.934;8.276;2023-03-18T07:57:51;96239.06;;;7.98;92.33
57232;BME280;43488;46.934;8.276;2023-03-18T08:00:19;96244.34;;;8.12;91.90
57232;BME280;43488;46.934;8.276;2023-03-18T08:02:46;96242.56;;;8.25;91.44
57232;BME280;43488;46.934;8.276;2023-03-18T08:05:14;96237.34;;;8.32;86.69
57232;BME280;43488;46.934;8.276;2023-03-18T08:07:41;96240.59;;;8.41;85.41
57232;BME280;43488;46.934;8.276;2023-03-18T08:10:11;96242.66;;;8.52;85.68
57232;BME280;43488;46.934;8.276;2023-03-18T08:12:39;96247.69;;;8.60;85.70
57232;BME280;43488;46.934;8.276;2023-03-18T08:15:07;96242.66;;;8.72;85.76
57232;BME280;43488;46.934;8.276;2023-03-18T08:17:35;96248.91;;;8.84;85.49
57232;BME280;43488;46.934;8.276;2023-03-18T08:20:05;96244.84;;;8.95;84.61
57232;BME280;43488;46.934;8.276;2023-03-18T08:22:32;96240.63;;;9.07;85.78
57232;BME280;43488;46.934;8.276;2023-03-18T08:25:00;96250.09;;;9.15;84.62
57232;BME280;43488;46.934;8.276;2023-03-18T08:27:28;96250.06;;;9.28;82.80
57232;BME280;43488;46.934;8.276;2023-03-18T08:29:55;96248.84;;;9.37;82.73
57232;BME280;43488;46.934;8.276;2023-03-18T08:32:23;96252.28;;;9.44;80.87
57232;BME280;43488;46.934;8.276;2023-03-18T08:34:52;96254.03;;;9.57;80.20
57232;BME280;43488;46.934;8.276;2023-03-18T08:37:19;96244.13;;;9.65;77.43
57232;BME280;43488;46.934;8.276;2023-03-18T08:39:46;96243.06;;;9.73;75.60
57232;BME280;43488;46.934;8.276;2023-03-18T08:42:14;96239.22;;;9.76;74.41
57232;BME280;43488;46.934;8.276;2023-03-18T08:44:42;96229.50;;;9.83;73.92
57232;BME280;43488;46.934;8.276;2023-03-18T08:47:09;96230.44;;;9.95;75.16
57232;BME280;43488;46.934;8.276;2023-03-18T08:49:37;96225.75;;;10.04;75.51
57232;BME280;43488;46.934;8.276;2023-03-18T08:52:05;96221.22;;;10.17;74.88
57232;BME280;43488;46.934;8.276;2023-03-18T08:54:32;96232.13;;;10.28;77.38
57232;BME280;43488;46.934;8.276;2023-03-18T08:57:00;96228.38;;;10.42;75.50
57232;BME280;43488;46.934;8.276;2023-03-18T08:59:27;96225.34;;;10.45;73.78
57232;BME280;43488;46.934;8.276;2023-03-18T09:01:54;96226.47;;;10.56;74.17
57232;BME280;43488;46.934;8.276;2023-03-18T09:04:22;96228.94;;;10.75;77.10
57232;BME280;43488;46.934;8.276;2023-03-18T09:06:52;96224.81;;;10.86;74.65
57232;BME280;43488;46.934;8.276;2023-03-18T09:09:21;96211.63;;;10.86;71.20
57232;BME280;43488;46.934;8.276;2023-03-18T09:11:48;96213.16;;;11.00;71.81
57232;BME280;43488;46.934;8.276;2023-03-18T09:14:16;96215.06;;;11.11;70.31
57232;BME280;43488;46.934;8.276;2023-03-18T09:16:43;96219.59;;;11.23;71.10
57232;BME280;43488;46.934;8.276;2023-03-18T09:19:12;96213.84;;;11.32;72.60
57232;BME280;43488;46.934;8.276;2023-03-18T09:21:39;96212.47;;;11.48;71.99
57232;BME280;43488;46.934;8.276;2023-03-18T09:24:07;96213.53;;;11.59;71.06
57232;BME280;43488;46.934;8.276;2023-03-18T09:26:35;96210.16;;;11.70;71.59
57232;BME280;43488;46.934;8.276;2023-03-18T09:29:02;96215.25;;;11.90;71.17
57232;BME280;43488;46.934;8.276;2023-03-18T09:31:30;96205.69;;;12.07;72.65
57232;BME280;43488;46.934;8.276;2023-03-18T09:33:57;96209.28;;;12.24;71.25
57232;BME280;43488;46.934;8.276;2023-03-18T09:36:24;96199.22;;;12.33;69.30
57232;BME280;43488;46.934;8.276;2023-03-18T09:38:52;96211.78;;;12.49;73.08
57232;BME280;43488;46.934;8.276;2023-03-18T09:44:22;96198.31;;;12.81;67.95
57232;BME280;43488;46.934;8.276;2023-03-18T09:52:53;96191.09;;;13.35;62.13
57232;BME280;43488;46.934;8.276;2023-03-18T09:55:31;96191.66;;;13.37;61.02
57232;BME280;43488;46.934;8.276;2023-03-18T10:00:51;96188.38;;;13.58;61.71
57232;BME280;43488;46.934;8.276;2023-03-18T10:03:54;96186.00;;;13.85;58.81
57232;BME280;43488;46.934;8.276;2023-03-18T10:06:26;96190.22;;;13.98;58.85
57232;BME280;43488;46.934;8.276;2023-03-18T10:09:59;96181.81;;;14.01;58.68
57232;BME280;43488;46.934;8.276;2023-03-18T10:12:17;96180.72;;;14.14;55.53
57232;BME280;43488;46.934;8.276;2023-03-18T10:17:45;96179.75;;;14.48;51.67
57232;BME280;43488;46.934;8.276;2023-03-18T10:26:31;96179.63;;;14.55;52.81
57232;BME280;43488;46.934;8.276;2023-03-18T10:32:07;96173.69;;;14.82;48.50
57232;BME280;43488;46.934;8.276;2023-03-18T10:37:56;96167.28;;;15.16;48.35
57232;BME280;43488;46.934;8.276;2023-03-18T10:40:37;96163.94;;;15.04;48.36
57232;BME280;43488;46.934;8.276;2023-03-18T10:43:17;96164.56;;;15.11;46.65
57232;BME280;43488;46.934;8.276;2023-03-18T10:45:49;96165.72;;;15.37;47.24
57232;BME280;43488;46.934;8.276;2023-03-18T10:48:34;96163.56;;;15.56;47.52
57232;BME280;43488;46.934;8.276;2023-03-18T10:51:16;96153.44;;;15.97;51.17
57232;BME280;43488;46.934;8.276;2023-03-18T10:54:11;96150.06;;;16.01;47.84
57232;BME280;43488;46.934;8.276;2023-03-18T10:56:41;96148.75;;;16.31;49.58
57232;BME280;43488;46.934;8.276;2023-03-18T10:59:17;96152.09;;;16.48;48.20
57232;BME280;43488;46.934;8.276;2023-03-18T11:02:02;96151.22;;;16.69;45.03
57232;BME280;43488;46.934;8.276;2023-03-18T11:04:44;96148.50;;;16.96;45.80
57232;BME280;43488;46.934;8.276;2023-03-18T11:07:19;96138.88;;;16.90;45.29
57232;BME280;43488;46.934;8.276;2023-03-18T11:09:47;96145.13;;;17.11;44.05
57232;BME280;43488;46.934;8.276;2023-03-18T11:12:18;96134.56;;;17.21;44.09
57232;BME280;43488;46.934;8.276;2023-03-18T11:14:49;96147.84;;;17.21;41.22
57232;BME280;43488;46.934;8.276;2023-03-18T11:17:28;96131.56;;;17.13;39.90
57232;BME280;43488;46.934;8.276;2023-03-18T11:22:48;96119.22;;;17.44;40.83
57232;BME280;43488;46.934;8.276;2023-03-18T11:25:24;96118.50;;;17.06;42.14
57232;BME280;43488;46.934;8.276;2023-03-18T11:28:05;96113.50;;;17.15;40.98
57232;BME280;43488;46.934;8.276;2023-03-18T11:30:49;96111.50;;;17.42;42.18
57232;BME280;43488;46.934;8.276;2023-03-18T11:33:23;96107.06;;;17.68;40.81
57232;BME280;43488;46.934;8.276;2023-03-18T11:36:04;96101.16;;;17.51;39.88
57232;BME280;43488;46.934;8.276;2023-03-18T11:38:36;96103.56;;;17.52;39.78
57232;BME280;43488;46.934;8.276;2023-03-18T11:41:27;96093.97;;;17.51;41.23
57232;BME280;43488;46.934;8.276;2023-03-18T11:44:02;96095.66;;;17.73;42.92
57232;BME280;43488;46.934;8.276;2023-03-18T11:46:42;96080.75;;;17.72;40.94
57232;BME280;43488;46.934;8.276;2023-03-18T11:49:19;96083.72;;;17.90;39.83
57232;BME280;43488;46.934;8.276;2023-03-18T11:55:25;96088.03;;;18.22;38.42
57232;BME280;43488;46.934;8.276;2023-03-18T12:20:09;96058.63;;;19.09;38.09
57232;BME280;43488;46.934;8.276;2023-03-18T12:26:20;96056.50;;;19.00;37.89
57232;BME280;43488;46.934;8.276;2023-03-18T12:29:17;96063.91;;;19.19;36.57
57232;BME280;43488;46.934;8.276;2023-03-18T12:32:08;96051.94;;;19.16;38.62
57232;BME280;43488;46.934;8.276;2023-03-18T12:49:18;96047.59;;;19.90;38.32
57232;BME280;43488;46.934;8.276;2023-03-18T12:52:08;96043.53;;;19.98;36.68
57232;BME280;43488;46.934;8.276;2023-03-18T12:55:00;96046.06;;;20.18;36.30
57232;BME280;43488;46.934;8.276;2023-03-18T13:00:25;96032.56;;;20.33;34.90
57232;BME280;43488;46.934;8.276;2023-03-18T13:06:41;96036.81;;;20.00;35.64
57232;BME280;43488;46.934;8.276;2023-03-18T13:12:21;96024.81;;;20.03;35.45
57232;BME280;43488;46.934;8.276;2023-03-18T13:15:09;96016.97;;;20.45;35.45
57232;BME280;43488;46.934;8.276;2023-03-18T13:17:43;96022.81;;;20.53;34.64
57232;BME280;43488;46.934;8.276;2023-03-18T13:20:26;96022.13;;;20.66;35.89
57232;BME280;43488;46.934;8.276;2023-03-18T13:23:19;96020.56;;;20.89;35.81
57232;BME280;43488;46.934;8.276;2023-03-18T13:36:04;96013.25;;;20.12;36.05
57232;BME280;43488;46.934;8.276;2023-03-18T13:48:15;96002.59;;;19.68;38.22
57232;BME280;43488;46.934;8.276;2023-03-18T13:50:46;96005.59;;;19.51;39.75
57232;BME280;43488;46.934;8.276;2023-03-18T13:53:29;96004.69;;;19.22;39.25
57232;BME280;43488;46.934;8.276;2023-03-18T14:06:21;95996.81;;;19.51;38.56
57232;BME280;43488;46.934;8.276;2023-03-18T14:08:51;95987.44;;;19.58;38.46
57232;BME280;43488;46.934;8.276;2023-03-18T14:19:26;95986.00;;;19.76;37.96
57232;BME280;43488;46.934;8.276;2023-03-18T14:22:32;95982.38;;;19.57;37.49
57232;BME280;43488;46.934;8.276;2023-03-18T14:25:22;95988.25;;;19.59;37.52
57232;BME280;43488;46.934;8.276;2023-03-18T14:35:58;95974.84;;;20.61;37.73
57232;BME280;43488;46.934;8.276;2023-03-18T14:38:44;95981.09;;;20.23;36.11
57232;BME280;43488;46.934;8.276;2023-03-18T14:41:23;95981.50;;;20.35;37.16
57232;BME280;43488;46.934;8.276;2023-03-18T14:44:07;95987.38;;;19.69;37.83
57232;BME280;43488;46.934;8.276;2023-03-18T14:46:43;95980.91;;;19.30;38.63
57232;BME280;43488;46.934;8.276;2023-03-18T14:49:43;95979.88;;;19.21;38.48
57232;BME280;43488;46.934;8.276;2023-03-18T14:52:28;95980.41;;;19.18;38.62
57232;BME280;43488;46.934;8.276;2023-03-18T14:55:01;95980.28;;;18.89;38.35
57232;BME280;43488;46.934;8.276;2023-03-18T14:57:31;95975.88;;;19.19;39.21
57232;BME280;43488;46.934;8.276;2023-03-18T15:00:00;95984.16;;;19.17;39.27
57232;BME280;43488;46.934;8.276;2023-03-18T15:02:36;95987.56;;;19.33;38.16
57232;BME280;43488;46.934;8.276;2023-03-18T15:05:06;95978.59;;;19.14;38.34
57232;BME280;43488;46.934;8.276;2023-03-18T15:07:38;95977.38;;;18.81;38.30
57232;BME280;43488;46.934;8.276;2023-03-18T15:10:14;95975.81;;;18.54;38.71
57232;BME280;43488;46.934;8.276;2023-03-18T15:12:59;95983.81;;;18.59;39.26
57232;BME280;43488;46.934;8.276;2023-03-18T15:15:26;95984.59;;;18.55;39.70
57232;BME280;43488;46.934;8.276;2023-03-18T15:17:54;95976.34;;;18.56;39.04
57232;BME280;43488;46.934;8.276;2023-03-18T15:20:22;95984.34;;;18.46;39.90
57232;BME280;43488;46.934;8.276;2023-03-18T15:22:49;95971.03;;;18.46;40.85
57232;BME280;43488;46.934;8.276;2023-03-18T15:25:19;95982.50;;;18.36;40.98
57232;BME280;43488;46.934;8.276;2023-03-18T15:27:48;95983.84;;;18.49;40.81
57232;BME280;43488;46.934;8.276;2023-03-18T15:30:26;95981.16;;;18.49;40.86
57232;BME280;43488;46.934;8.276;2023-03-18T15:33:26;95984.59;;;18.60;40.57
57232;BME280;43488;46.934;8.276;2023-03-18T15:36:10;95981.69;;;18.66;40.52
57232;BME280;43488;46.934;8.276;2023-03-18T15:38:47;95989.13;;;18.59;40.06
57232;BME280;43488;46.934;8.276;2023-03-18T15:41:16;95988.88;;;18.51;40.95
57232;BME280;43488;46.934;8.276;2023-03-18T15:43:50;95989.97;;;18.34;42.20
57232;BME280;43488;46.934;8.276;2023-03-18T15:46:27;95989.19;;;18.18;41.51